Time;durP1;ratioP1;P1;durP2;ratioP2;P2;SDS_P1;SDS_P2;PMS_P1;PMS_P2;Temp;Humidity;BMP_temperature;BMP_pressure;BME280_temperature;BME280_humidity;BME280_pressure;Samples;Min_cycle;Max_cycle;Signal;HPM_P1;HPM_P2
2023/09/28 00:00:35;;;;;;;20.80;3.40;;;;;;;14.89;100.00;99933.94;5053653;28;20023;-87
2023/09/28 00:03:01;;;;;;;25.55;3.90;;;;;;;14.91;100.00;99945.03;5053467;28;20021;-87
2023/09/28 00:05:27;;;;;;;25.10;3.60;;;;;;;14.96;100.00;99963.66;5053577;28;20039;-87
2023/09/28 00:07:55;;;;;;;20.33;4.15;;;;;;;14.84;100.00;99959.50;5053311;28;20487;-87
2023/09/28 00:10:20;;;;;;;23.33;4.18;;;;;;;14.83;100.00;99965.66;5053153;28;20021;-87
2023/09/28 00:12:48;;;;;;;22.90;4.88;;;;;;;14.85;100.00;99976.75;5053105;28;20099;-87
2023/09/28 00:15:14;;;;;;;21.67;4.05;;;;;;;14.84;100.00;99969.88;5053391;28;20131;-87
2023/09/28 00:17:40;;;;;;;24.83;3.63;;;;;;;14.70;100.00;99975.38;5053487;28;20036;-86
2023/09/28 00:20:16;;;;;;;28.65;3.65;;;;;;;14.64;100.00;99981.09;5035225;28;20028;-87
2023/09/28 00:22:41;;;;;;;23.92;4.10;;;;;;;14.76;100.00;99987.88;5035366;28;20025;-86
2023/09/28 00:25:11;;;;;;;19.75;4.05;;;;;;;14.70;100.00;99984.03;5052577;28;20031;-86
2023/09/28 00:27:43;;;;;;;22.40;3.70;;;;;;;14.62;100.00;99980.41;5052941;28;20025;-87
2023/09/28 00:30:10;;;;;;;18.63;4.07;;;;;;;14.69;100.00;99997.13;5053027;28;20082;-86
2023/09/28 00:32:36;;;;;;;28.50;4.20;;;;;;;14.65;100.00;100008.72;5053131;28;20083;-87
2023/09/28 00:35:06;;;;;;;23.83;4.13;;;;;;;14.67;100.00;99997.25;5052926;28;20383;-87
2023/09/28 00:37:32;;;;;;;20.73;3.90;;;;;;;14.84;100.00;99989.84;5034503;28;20013;-87
2023/09/28 00:39:58;;;;;;;20.83;4.00;;;;;;;14.76;100.00;100000.88;5035029;28;20475;-87
2023/09/28 00:42:24;;;;;;;24.90;3.85;;;;;;;14.73;100.00;99995.94;5034093;28;20495;-87
2023/09/28 00:44:51;;;;;;;21.05;3.83;;;;;;;14.63;100.00;99988.06;5053094;28;20052;-87
2023/09/28 00:47:16;;;;;;;18.98;3.85;;;;;;;14.63;100.00;100010.59;5052912;28;20066;-87
2023/09/28 00:49:45;;;;;;;30.80;3.92;;;;;;;14.60;100.00;100016.88;5052703;28;20449;-87
2023/09/28 00:52:16;;;;;;;22.27;3.30;;;;;;;14.70;100.00;100022.16;5052610;28;20036;-87
2023/09/28 00:54:43;;;;;;;31.27;5.30;;;;;;;14.61;100.00;100030.72;5034941;28;20025;-87
2023/09/28 00:57:09;;;;;;;24.42;3.33;;;;;;;14.59;100.00;100030.81;5052750;28;20029;-87
2023/09/28 00:59:34;;;;;;;27.52;4.80;;;;;;;14.63;100.00;100052.16;5052631;28;20485;-87
2023/09/28 01:01:59;;;;;;;19.40;3.42;;;;;;;14.59;100.00;100055.97;5052352;28;20017;-87
2023/09/28 01:04:26;;;;;;;24.67;3.55;;;;;;;14.60;100.00;100057.59;5052540;28;20372;-87
2023/09/28 01:06:51;;;;;;;19.70;3.75;;;;;;;14.50;100.00;100058.31;5052466;28;20032;-87
2023/09/28 01:09:17;;;;;;;22.80;3.88;;;;;;;14.58;100.00;100069.88;5052709;28;20021;-87
2023/09/28 01:11:42;;;;;;;20.90;3.60;;;;;;;14.57;100.00;100057.88;5052545;28;20033;-87
2023/09/28 01:14:08;;;;;;;23.48;4.18;;;;;;;14.69;100.00;100060.28;5034431;28;20078;-87
2023/09/28 01:16:33;;;;;;;26.95;3.90;;;;;;;14.60;100.00;100057.59;5052376;28;20032;-86
2023/09/28 01:18:59;;;;;;;20.98;3.70;;;;;;;14.58;100.00;100067.28;5034335;28;20491;-87
2023/09/28 01:21:24;;;;;;;25.15;3.55;;;;;;;14.72;100.00;100061.81;5052273;28;20158;-86
2023/09/28 01:23:51;;;;;;;21.33;3.97;;;;;;;14.61;100.00;100065.28;5052279;28;20028;-87
2023/09/28 01:26:16;;;;;;;30.73;3.47;;;;;;;14.52;100.00;100060.78;5052264;28;20036;-87
2023/09/28 01:28:42;;;;;;;21.15;3.15;;;;;;;14.66;100.00;100059.72;5034275;28;20413;-86
2023/09/28 01:31:07;;;;;;;19.83;3.15;;;;;;;14.71;100.00;100062.78;5052037;28;20017;-87
2023/09/28 01:33:33;;;;;;;14.57;3.13;;;;;;;14.64;100.00;100059.03;5052068;28;20028;-87
2023/09/28 01:35:58;;;;;;;19.40;2.97;;;;;;;14.66;100.00;100064.94;5052103;28;20032;-87
2023/09/28 01:38:34;;;;;;;14.48;2.83;;;;;;;14.66;100.00;100067.53;5051823;28;20020;-86
2023/09/28 01:41:00;;;;;;;22.23;2.92;;;;;;;14.70;100.00;100067.16;5052019;28;20052;-87
2023/09/28 01:43:25;;;;;;;20.60;2.53;;;;;;;14.67;100.00;100074.34;5051821;28;20048;-87
2023/09/28 01:45:51;;;;;;;18.55;4.03;;;;;;;14.60;100.00;100078.38;5033981;28;20446;-87
2023/09/28 01:48:16;;;;;;;20.58;3.60;;;;;;;14.68;100.00;100076.84;5051917;28;20025;-87
2023/09/28 01:50:41;;;;;;;26.70;4.18;;;;;;;14.53;100.00;100068.50;5051746;28;20024;-87
2023/09/28 01:53:07;;;;;;;24.48;3.60;;;;;;;14.64;100.00;100069.41;5051722;28;20033;-86
2023/09/28 01:55:32;;;;;;;21.73;4.43;;;;;;;14.59;100.00;100077.56;5051842;28;20075;-87
2023/09/28 01:57:59;;;;;;;22.23;3.55;;;;;;;14.63;100.00;100078.13;5051631;28;20052;-87
2023/09/28 02:00:25;;;;;;;18.10;3.42;;;;;;;14.73;100.00;100087.69;5051699;28;20017;-87
2023/09/28 02:02:55;;;;;;;18.52;2.92;;;;;;;14.62;100.00;100081.69;5051565;28;20524;-87
2023/09/28 02:05:32;;;;;;;22.00;3.75;;;;;;;14.67;100.00;100079.56;5051664;28;20379;-87
2023/09/28 02:07:57;;;;;;;16.77;3.67;;;;;;;14.60;100.00;100091.38;5033759;28;20029;-87
2023/09/28 02:10:23;;;;;;;14.75;2.95;;;;;;;14.66;100.00;100104.72;5033728;28;20032;-87
2023/09/28 02:12:48;;;;;;;15.70;2.65;;;;;;;14.76;100.00;100081.41;5051705;28;20364;-87
2023/09/28 02:15:17;;;;;;;19.13;2.80;;;;;;;14.70;100.00;100076.69;5051470;28;20031;-87
2023/09/28 02:17:43;;;;;;;16.98;2.78;;;;;;;14.62;100.00;100089.50;5051449;28;20474;-87
2023/09/28 02:20:10;;;;;;;19.02;3.00;;;;;;;14.59;100.00;100087.97;5051577;28;20025;-86
2023/09/28 02:22:43;;;;;;;23.10;4.57;;;;;;;14.64;100.00;100092.78;5033609;28;20032;-87
2023/09/28 02:25:18;;;;;;;15.68;2.55;;;;;;;14.52;100.00;100092.78;5051563;28;20013;-87
2023/09/28 02:27:47;;;;;;;15.23;3.75;;;;;;;14.57;100.00;100091.63;5051355;28;20037;-87
2023/09/28 02:30:15;;;;;;;15.07;2.50;;;;;;;14.49;100.00;100094.81;5051432;28;20025;-87
2023/09/28 02:32:44;;;;;;;13.68;2.95;;;;;;;14.53;100.00;100098.78;5033636;28;20078;-86
2023/09/28 02:35:11;;;;;;;15.88;2.88;;;;;;;14.57;100.00;100102.03;5051423;28;20464;-87
2023/09/28 02:37:37;;;;;;;17.25;3.05;;;;;;;14.53;100.00;100102.28;5051380;28;20205;-87
2023/09/28 02:40:07;;;;;;;17.00;2.70;;;;;;;14.61;100.00;100100.84;5051259;28;20191;-87
2023/09/28 02:42:34;;;;;;;19.17;3.58;;;;;;;14.57;100.00;100104.63;5033296;28;20025;-87
2023/09/28 02:44:59;;;;;;;25.65;3.83;;;;;;;14.63;100.00;100098.91;5051117;28;20021;-86
2023/09/28 02:47:26;;;;;;;21.13;4.00;;;;;;;14.53;100.00;100097.06;5051182;28;20021;-87
2023/09/28 02:49:51;;;;;;;19.63;3.30;;;;;;;14.53;100.00;100091.88;5055232;28;20099;-87
2023/09/28 02:52:17;;;;;;;17.42;2.90;;;;;;;14.58;100.00;100075.09;5053899;28;20100;-87
2023/09/28 02:54:44;;;;;;;18.13;3.10;;;;;;;14.52;100.00;100092.78;5054488;28;20047;-87
2023/09/28 02:57:10;;;;;;;21.60;4.15;;;;;;;14.47;100.00;100099.28;5037032;28;20090;-87
2023/09/28 02:59:36;;;;;;;14.98;3.28;;;;;;;14.49;100.00;100103.41;5054989;28;20467;-87
2023/09/28 03:02:02;;;;;;;14.40;2.65;;;;;;;14.45;100.00;100099.41;5036912;28;20075;-87
2023/09/28 03:04:32;;;;;;;19.25;3.50;;;;;;;14.33;100.00;100101.19;5054747;28;20474;-87
2023/09/28 03:06:58;;;;;;;17.08;2.65;;;;;;;14.33;100.00;100114.16;5053737;28;20029;-87
2023/09/28 03:09:23;;;;;;;15.00;3.10;;;;;;;14.36;100.00;100123.50;5053265;28;20383;-87
2023/09/28 03:11:49;;;;;;;15.73;3.22;;;;;;;14.38;100.00;100126.78;5049802;28;20497;-87
2023/09/28 03:14:14;;;;;;;11.40;3.47;;;;;;;14.38;100.00;100124.19;5054203;28;20112;-87
2023/09/28 03:16:40;;;;;;;14.35;3.42;;;;;;;14.33;100.00;100113.34;5054700;28;20029;-87
2023/09/28 03:19:06;;;;;;;14.98;2.75;;;;;;;14.27;100.00;100108.66;5052948;28;20425;-87
2023/09/28 03:21:32;;;;;;;16.38;3.28;;;;;;;14.34;100.00;100104.63;5054462;28;20071;-87
2023/09/28 03:23:58;;;;;;;16.50;2.50;;;;;;;14.29;100.00;100111.97;5053670;28;20033;-87
2023/09/28 03:26:24;;;;;;;17.80;3.13;;;;;;;14.25;100.00;100126.13;5034671;28;20018;-87
2023/09/28 03:28:50;;;;;;;18.98;3.00;;;;;;;14.24;100.00;100137.44;5033072;28;20143;-87
2023/09/28 03:31:15;;;;;;;11.70;2.25;;;;;;;14.24;100.00;100135.69;5034401;28;20025;-87
2023/09/28 03:33:40;;;;;;;15.85;2.60;;;;;;;14.33;100.00;100144.50;5034092;28;20040;-87
2023/09/28 03:36:06;;;;;;;17.15;2.78;;;;;;;14.44;100.00;100147.09;5034335;28;20183;-87
2023/09/28 03:38:31;;;;;;;16.00;2.63;;;;;;;14.34;100.00;100144.41;5034122;28;20052;-87
2023/09/28 03:40:57;;;;;;;15.38;2.97;;;;;;;14.44;100.00;100157.50;5040877;28;20036;-86
2023/09/28 03:43:22;;;;;;;18.23;2.63;;;;;;;14.44;100.00;100173.06;5021810;28;20029;-87
2023/09/28 03:45:47;;;;;;;15.07;3.00;;;;;;;14.38;100.00;100168.34;5033918;28;20033;-87
2023/09/28 03:48:13;;;;;;;19.05;3.95;;;;;;;14.39;100.00;100154.44;5033991;28;20036;-87
2023/09/28 03:50:38;;;;;;;12.40;2.17;;;;;;;14.31;100.00;100159.38;5033911;28;20543;-87
2023/09/28 03:53:04;;;;;;;17.55;2.60;;;;;;;14.35;100.00;100148.63;5037423;28;20104;-88
2023/09/28 03:55:29;;;;;;;21.35;2.90;;;;;;;14.31;100.00;100138.59;5053974;28;20519;-87
2023/09/28 03:57:59;;;;;;;12.75;3.00;;;;;;;14.28;100.00;100141.44;5053569;28;20033;-87
2023/09/28 04:00:24;;;;;;;12.88;2.47;;;;;;;14.12;100.00;100142.63;5052095;28;20024;-87
2023/09/28 04:02:51;;;;;;;19.75;2.58;;;;;;;14.03;100.00;100153.72;5033554;28;20395;-87
2023/09/28 04:05:17;;;;;;;15.57;2.90;;;;;;;13.96;100.00;100146.53;5033770;28;20025;-87
2023/09/28 04:07:43;;;;;;;17.88;3.08;;;;;;;13.96;100.00;100168.09;5033743;28;20049;-87
2023/09/28 04:10:09;;;;;;;18.55;3.50;;;;;;;13.86;100.00;100172.34;5033665;28;20100;-87
2023/09/28 04:12:35;;;;;;;15.60;3.60;;;;;;;13.70;100.00;100170.91;5033364;28;20025;-86
2023/09/28 04:15:00;;;;;;;18.92;3.33;;;;;;;13.75;100.00;100177.50;5036085;28;20051;-87
2023/09/28 04:17:25;;;;;;;17.27;3.00;;;;;;;13.72;100.00;100164.75;5053328;28;20066;-87
2023/09/28 04:19:52;;;;;;;15.25;2.70;;;;;;;13.64;100.00;100163.56;5053260;28;20025;-87
2023/09/28 04:22:18;;;;;;;17.50;2.80;;;;;;;13.62;100.00;100155.06;5052891;28;20029;-87
2023/09/28 04:24:43;;;;;;;14.65;2.70;;;;;;;13.53;100.00;100160.94;5053259;28;20525;-87
2023/09/28 04:27:08;;;;;;;22.35;3.28;;;;;;;13.44;100.00;100180.59;5053078;28;20032;-87
2023/09/28 04:29:35;;;;;;;15.90;3.20;;;;;;;13.44;100.00;100182.38;5053182;28;20376;-87
2023/09/28 04:32:01;;;;;;;20.67;3.67;;;;;;;13.53;100.00;100186.88;5053080;28;20021;-87
2023/09/28 04:34:26;;;;;;;21.20;3.80;;;;;;;13.44;100.00;100192.75;5053174;28;20025;-87
2023/09/28 04:36:52;;;;;;;17.42;2.83;;;;;;;13.37;100.00;100191.53;5052841;28;20395;-87
2023/09/28 04:39:18;;;;;;;27.38;3.78;;;;;;;13.23;100.00;100195.91;5053157;28;20009;-87
2023/09/28 04:41:44;;;;;;;23.08;3.45;;;;;;;13.18;100.00;100195.44;5052907;28;20033;-87
2023/09/28 04:44:09;;;;;;;16.83;3.28;;;;;;;13.14;100.00;100212.13;5053009;28;20031;-87
2023/09/28 04:46:35;;;;;;;19.17;3.35;;;;;;;13.21;100.00;100221.13;5052493;28;20546;-87
2023/09/28 04:49:01;;;;;;;18.52;3.38;;;;;;;13.15;100.00;100203.44;5052862;28;20032;-87
2023/09/28 04:51:26;;;;;;;26.20;4.35;;;;;;;13.11;100.00;100196.81;5052938;28;20022;-87
2023/09/28 04:53:52;;;;;;;25.70;3.95;;;;;;;13.03;100.00;100199.13;5052774;28;20074;-87
2023/09/28 04:56:18;;;;;;;23.83;4.78;;;;;;;13.15;100.00;100202.63;5052835;28;20490;-87
2023/09/28 04:58:43;;;;;;;27.27;3.42;;;;;;;13.12;100.00;100197.63;5034889;28;20475;-87
2023/09/28 05:01:09;;;;;;;22.20;3.45;;;;;;;13.00;100.00;100184.63;5034679;28;20469;-86
2023/09/28 05:03:35;;;;;;;19.45;3.53;;;;;;;12.99;100.00;100182.13;5052654;28;20029;-87
2023/09/28 05:06:00;;;;;;;19.58;3.40;;;;;;;12.98;100.00;100202.03;5052720;28;20294;-87
2023/09/28 05:08:26;;;;;;;17.30;3.40;;;;;;;12.83;100.00;100198.78;5052354;28;20083;-87
2023/09/28 05:10:52;;;;;;;19.15;4.00;;;;;;;12.92;100.00;100194.69;5052201;28;20033;-87
2023/09/28 05:13:19;;;;;;;23.98;3.25;;;;;;;12.81;100.00;100211.00;5052451;28;20447;-87
2023/09/28 05:15:44;;;;;;;28.05;4.38;;;;;;;12.78;100.00;100225.94;5052029;28;20032;-87
2023/09/28 05:18:10;;;;;;;23.15;3.92;;;;;;;12.74;100.00;100222.72;5052166;28;20386;-87
2023/09/28 05:20:36;;;;;;;22.10;3.55;;;;;;;12.71;100.00;100225.53;5052131;28;20039;-87
2023/09/28 05:23:03;;;;;;;31.95;4.30;;;;;;;12.88;100.00;100236.50;5052261;28;20042;-87
2023/09/28 05:25:29;;;;;;;27.95;4.10;;;;;;;12.75;100.00;100245.13;5052322;28;20047;-87
2023/09/28 05:27:54;;;;;;;21.40;4.78;;;;;;;12.75;100.00;100242.53;5052233;28;20047;-87
2023/09/28 05:30:20;;;;;;;19.00;2.95;;;;;;;12.70;100.00;100256.72;5051388;28;20029;-87
2023/09/28 05:32:45;;;;;;;23.67;3.30;;;;;;;12.57;100.00;100259.31;5050598;28;20067;-87
2023/09/28 05:35:10;;;;;;;19.67;3.33;;;;;;;12.59;100.00;100252.28;5051974;28;20021;-87
2023/09/28 05:37:36;;;;;;;15.55;3.70;;;;;;;12.55;100.00;100251.66;5051965;28;20037;-87
2023/09/28 05:40:04;;;;;;;16.63;3.63;;;;;;;12.52;100.00;100269.19;5051805;28;20025;-87
2023/09/28 05:42:30;;;;;;;19.45;4.07;;;;;;;12.47;100.00;100268.66;5034097;28;20025;-87
2023/09/28 05:44:55;;;;;;;26.75;3.72;;;;;;;12.39;100.00;100264.84;5052028;28;20051;-87
2023/09/28 05:47:21;;;;;;;24.42;3.92;;;;;;;12.42;100.00;100269.78;5033879;28;20070;-89
2023/09/28 05:49:47;;;;;;;21.10;4.18;;;;;;;12.40;100.00;100263.06;5051694;28;20536;-87
2023/09/28 05:52:13;;;;;;;18.33;3.33;;;;;;;12.36;100.00;100266.78;5050180;28;20021;-87
2023/09/28 05:54:38;;;;;;;22.08;3.95;;;;;;;12.34;100.00;100269.50;5049942;28;20537;-87
2023/09/28 05:57:04;;;;;;;15.02;2.85;;;;;;;12.32;100.00;100255.81;5051879;28;20036;-87
2023/09/28 05:59:29;;;;;;;20.98;3.35;;;;;;;12.37;100.00;100258.94;5032841;28;20017;-89
2023/09/28 06:01:55;;;;;;;17.73;3.78;;;;;;;12.47;100.00;100269.47;5049552;28;20049;-88
2023/09/28 06:04:21;;;;;;;16.17;3.28;;;;;;;12.32;100.00;100262.75;5051244;28;20021;-89
2023/09/28 06:06:50;;;;;;;20.85;3.13;;;;;;;12.19;100.00;100261.00;5050630;28;20058;-87
2023/09/28 06:09:16;;;;;;;14.38;2.80;;;;;;;12.20;100.00;100265.22;5051321;28;20086;-87
2023/09/28 06:11:41;;;;;;;17.98;3.05;;;;;;;12.11;100.00;100280.53;5033464;28;20029;-88
2023/09/28 06:14:08;;;;;;;10.98;2.25;;;;;;;12.09;100.00;100284.97;5051381;28;20037;-87
2023/09/28 06:16:36;;;;;;;21.50;4.13;;;;;;;12.10;100.00;100284.91;5051342;28;20017;-88
2023/09/28 06:19:01;;;;;;;15.60;2.80;;;;;;;12.05;100.00;100278.38;5051437;28;20033;-87
2023/09/28 06:21:27;;;;;;;20.48;3.58;;;;;;;11.98;100.00;100281.34;5051295;28;20360;-88
2023/09/28 06:23:52;;;;;;;18.60;3.42;;;;;;;11.99;100.00;100295.09;5053062;28;20021;-87
2023/09/28 06:26:17;;;;;;;15.90;2.83;;;;;;;12.09;100.00;100293.56;5055543;28;20477;-87
2023/09/28 06:28:43;;;;;;;16.23;3.42;;;;;;;12.21;100.00;100297.09;5055397;28;20491;-88
2023/09/28 06:31:08;;;;;;;27.20;4.05;;;;;;;12.17;100.00;100291.31;5054830;28;20498;-88
2023/09/28 06:33:34;;;;;;;19.48;2.90;;;;;;;12.16;100.00;100291.41;5054431;28;20017;-87
2023/09/28 06:35:59;;;;;;;29.35;3.90;;;;;;;12.27;100.00;100294.13;5055394;28;20027;-87
2023/09/28 06:38:24;;;;;;;17.60;3.28;;;;;;;12.29;100.00;100302.63;5054643;28;20032;-87
2023/09/28 06:40:50;;;;;;;13.50;2.40;;;;;;;12.30;100.00;100312.03;5055158;28;20029;-88
2023/09/28 06:43:15;;;;;;;25.45;4.47;;;;;;;12.36;100.00;100321.13;5055092;28;20502;-87
2023/09/28 06:45:42;;;;;;;14.70;2.72;;;;;;;12.51;100.00;100320.13;5055118;28;20102;-87
2023/09/28 06:48:07;;;;;;;19.08;3.00;;;;;;;12.46;100.00;100326.53;5055100;28;20029;-87
2023/09/28 06:50:35;;;;;;;17.30;2.65;;;;;;;12.35;100.00;100330.66;5055029;28;20036;-87
2023/09/28 06:53:02;;;;;;;16.20;2.88;;;;;;;12.37;100.00;100333.97;5053575;28;20037;-88
2023/09/28 06:55:27;;;;;;;11.55;2.42;;;;;;;12.38;100.00;100337.38;5054445;28;20032;-87
2023/09/28 06:57:53;;;;;;;10.98;2.55;;;;;;;12.41;100.00;100332.84;5037083;28;20150;-87
2023/09/28 07:00:18;;;;;;;17.58;3.03;;;;;;;12.41;100.00;100332.84;5054778;28;20029;-88
2023/09/28 07:02:47;;;;;;;14.73;2.50;;;;;;;12.47;100.00;100317.84;5054718;28;20025;-89
2023/09/28 07:05:14;;;;;;;17.48;2.75;;;;;;;12.55;100.00;100315.56;5036995;28;20033;-87
2023/09/28 07:07:39;;;;;;;16.60;2.85;;;;;;;12.55;100.00;100310.38;5054003;28;20487;-87
2023/09/28 07:10:05;;;;;;;22.70;2.92;;;;;;;12.54;100.00;100309.56;5054863;28;20025;-87
2023/09/28 07:12:31;;;;;;;23.65;3.65;;;;;;;12.58;100.00;100307.56;5054539;28;20087;-87
2023/09/28 07:14:56;;;;;;;19.45;3.10;;;;;;;12.61;100.00;100302.22;5054463;28;20469;-87
2023/09/28 07:17:22;;;;;;;18.73;3.05;;;;;;;12.63;100.00;100310.69;5036841;28;20031;-87
2023/09/28 07:19:48;;;;;;;16.20;3.30;;;;;;;12.67;100.00;100306.94;5054114;28;20032;-87
2023/09/28 07:22:15;;;;;;;24.45;4.32;;;;;;;12.69;100.00;100299.91;5053643;28;20029;-88
2023/09/28 07:24:40;;;;;;;22.88;4.35;;;;;;;12.75;100.00;100291.75;5036471;28;20067;-87
2023/09/28 07:27:06;;;;;;;15.55;3.22;;;;;;;12.75;100.00;100294.31;5054370;28;20403;-88
2023/09/28 07:29:31;;;;;;;20.55;4.13;;;;;;;12.81;100.00;100299.06;5054301;28;20044;-88
2023/09/28 07:31:57;;;;;;;26.30;3.72;;;;;;;12.94;100.00;100308.59;5054129;28;20326;-88
2023/09/28 07:34:23;;;;;;;17.42;3.17;;;;;;;13.06;100.00;100318.09;5053811;28;20053;-88
2023/09/28 07:36:48;;;;;;;25.13;3.03;;;;;;;13.10;100.00;100308.34;5053455;28;20071;-87
2023/09/28 07:39:14;;;;;;;21.42;3.35;;;;;;;13.13;100.00;100319.31;5053978;28;20116;-88
2023/09/28 07:41:40;;;;;;;31.75;4.75;;;;;;;13.15;100.00;100339.97;5053945;28;20048;-88
2023/09/28 07:44:05;;;;;;;21.23;3.33;;;;;;;13.22;100.00;100348.97;5053819;28;20474;-86
2023/09/28 07:46:31;;;;;;;19.30;3.28;;;;;;;13.30;100.00;100336.31;5054275;28;20032;-87
2023/09/28 07:48:56;;;;;;;21.48;3.58;;;;;;;13.41;100.00;100332.94;5053873;28;20037;-87
2023/09/28 07:51:22;;;;;;;18.30;3.33;;;;;;;13.75;100.00;100326.16;5052283;28;20475;-88
2023/09/28 07:53:47;;;;;;;31.63;5.40;;;;;;;14.29;100.00;100320.47;5053661;28;20537;-87
2023/09/28 07:56:12;;;;;;;22.05;4.78;;;;;;;14.43;100.00;100322.00;5053637;28;20025;-86
2023/09/28 07:58:39;;;;;;;20.75;3.38;;;;;;;14.27;100.00;100316.34;5053552;28;20036;-88
2023/09/28 08:01:04;;;;;;;17.67;3.78;;;;;;;14.39;100.00;100315.41;5069615;28;20050;-88
2023/09/28 08:03:29;;;;;;;25.60;4.10;;;;;;;14.31;100.00;100302.16;5055496;28;20478;-88
2023/09/28 08:05:55;;;;;;;24.80;3.47;;;;;;;14.27;100.00;100318.94;5073047;28;20386;-87
2023/09/28 08:08:20;;;;;;;17.90;4.10;;;;;;;14.28;100.00;100331.78;5066753;28;20471;-87
2023/09/28 08:10:47;;;;;;;27.45;4.35;;;;;;;14.14;100.00;100337.16;5053470;28;20021;-87
2023/09/28 08:13:13;;;;;;;18.33;2.95;;;;;;;14.11;100.00;100333.03;5053221;28;20421;-87
2023/09/28 08:15:38;;;;;;;18.38;4.13;;;;;;;14.08;100.00;100351.44;5053384;28;20028;-88
2023/09/28 08:18:04;;;;;;;22.77;3.80;;;;;;;14.03;100.00;100339.75;5053657;28;20025;-88
2023/09/28 08:20:29;;;;;;;30.38;6.22;;;;;;;13.99;100.00;100340.91;5065158;28;20474;-87
2023/09/28 08:22:54;;;;;;;28.40;4.07;;;;;;;14.04;100.00;100346.56;5059022;28;20436;-87
2023/09/28 08:25:20;;;;;;;18.55;3.67;;;;;;;13.97;100.00;100338.41;5053073;28;20505;-88
2023/09/28 08:27:45;;;;;;;16.02;3.53;;;;;;;14.01;100.00;100352.81;5051887;28;20047;-88
2023/09/28 08:30:11;;;;;;;18.17;3.85;;;;;;;13.99;100.00;100346.91;5052709;28;20029;-87
2023/09/28 08:32:37;;;;;;;22.85;4.18;;;;;;;14.00;100.00;100339.97;5053055;28;20479;-87
2023/09/28 08:35:03;;;;;;;21.33;4.72;;;;;;;13.99;100.00;100323.56;5052338;28;20043;-89
2023/09/28 08:37:28;;;;;;;24.70;4.75;;;;;;;14.07;100.00;100330.78;5052003;28;20070;-88
2023/09/28 08:39:54;;;;;;;27.45;4.18;;;;;;;14.15;100.00;100317.25;5053051;28;20029;-87
2023/09/28 08:42:24;;;;;;;26.42;4.10;;;;;;;14.16;100.00;100324.09;5052759;28;20025;-87
2023/09/28 08:44:59;;;;;;;34.97;5.93;;;;;;;14.21;100.00;100329.75;5052445;28;20155;-87
2023/09/28 08:47:26;;;;;;;22.15;4.40;;;;;;;14.31;100.00;100343.69;5051694;28;20025;-87
2023/09/28 08:49:52;;;;;;;22.50;4.40;;;;;;;14.25;100.00;100345.00;5053005;28;20124;-86
2023/09/28 08:52:18;;;;;;;27.90;4.72;;;;;;;14.27;100.00;100352.69;5052114;28;20020;-86
2023/09/28 08:54:43;;;;;;;22.45;4.15;;;;;;;14.30;100.00;100352.44;5052495;28;20483;-87
2023/09/28 08:57:12;;;;;;;20.75;4.55;;;;;;;14.34;100.00;100349.50;5052372;28;20021;-86
2023/09/28 08:59:39;;;;;;;27.88;5.13;;;;;;;14.37;100.00;100353.66;5052607;28;20409;-87
2023/09/28 09:02:05;;;;;;;22.92;4.30;;;;;;;14.27;100.00;100334.50;5052569;28;20053;-87
2023/09/28 09:04:38;;;;;;;19.80;3.95;;;;;;;14.17;100.00;100321.38;5052215;28;20025;-87
2023/09/28 09:07:04;;;;;;;30.08;3.75;;;;;;;14.12;100.00;100311.34;5051359;28;20368;-88
2023/09/28 09:09:32;;;;;;;23.48;4.38;;;;;;;14.12;100.00;100319.13;5051912;28;20033;-86
2023/09/28 09:11:58;;;;;;;16.95;3.42;;;;;;;14.18;100.00;100317.00;5051894;28;20033;-87
2023/09/28 09:14:30;;;;;;;27.70;5.70;;;;;;;14.19;100.00;100292.69;5051804;28;20031;-86
2023/09/28 09:16:55;;;;;;;32.67;5.22;;;;;;;14.21;100.00;100296.00;5051888;28;20136;-86
2023/09/28 09:19:21;;;;;;;22.42;4.60;;;;;;;14.38;100.00;100307.72;5052047;28;20538;-86
2023/09/28 09:21:47;;;;;;;29.02;5.00;;;;;;;14.58;100.00;100311.44;5049700;28;20025;-86
2023/09/28 09:24:14;;;;;;;31.05;6.72;;;;;;;14.74;100.00;100314.53;5052421;28;20021;-88
2023/09/28 09:26:44;;;;;;;26.92;5.13;;;;;;;14.66;100.00;100314.28;5051226;28;20508;-86
2023/09/28 09:29:11;;;;;;;30.55;5.00;;;;;;;14.93;100.00;100327.75;5051848;28;20155;-87
2023/09/28 09:31:56;;;;;;;31.27;6.05;;;;;;;15.53;100.00;100322.19;5052044;28;20025;-87
2023/09/28 09:34:22;;;;;;;31.23;5.90;;;;;;;16.67;100.00;100324.94;5052109;28;20036;-89
2023/09/28 09:36:55;;;;;;;28.95;4.90;;;;;;;16.77;100.00;100324.16;5050886;28;20029;-89
2023/09/28 09:39:25;;;;;;;37.20;6.38;;;;;;;16.90;97.60;100336.06;5052097;28;20040;-87
2023/09/28 09:41:53;;;;;;;31.30;5.32;;;;;;;16.81;95.88;100347.25;5050957;28;20052;-88
2023/09/28 09:44:20;;;;;;;25.20;5.53;;;;;;;17.14;95.50;100337.50;5050867;28;20479;-89
2023/09/28 09:46:48;;;;;;;24.52;4.05;;;;;;;16.57;95.68;100334.50;5051050;28;20383;-89
2023/09/28 09:49:18;;;;;;;29.58;4.72;;;;;;;16.50;99.56;100338.56;5051307;28;20036;-88
2023/09/28 09:51:45;;;;;;;33.70;4.95;;;;;;;16.23;98.51;100337.31;5050695;28;20036;-91
2023/09/28 09:54:13;;;;;;;28.08;4.43;;;;;;;15.88;100.00;100336.81;5033855;28;20036;-88
2023/09/28 09:56:42;;;;;;;26.88;4.38;;;;;;;15.97;100.00;100330.81;5050582;28;20617;-87
2023/09/28 09:59:12;;;;;;;28.85;5.82;;;;;;;15.98;100.00;100327.28;5050785;28;20044;-87
2023/09/28 10:01:40;;;;;;;26.30;5.07;;;;;;;16.11;100.00;100333.13;5051083;28;20096;-86
2023/09/28 10:04:12;;;;;;;32.55;4.93;;;;;;;16.23;100.00;100363.34;5069660;28;20356;-86
2023/09/28 10:06:38;;;;;;;29.30;4.35;;;;;;;16.28;100.00;100370.78;5052621;28;20123;-87
2023/09/28 10:09:04;;;;;;;26.08;4.38;;;;;;;16.24;96.66;100361.56;5065484;28;20017;-87
2023/09/28 10:11:31;;;;;;;22.80;4.72;;;;;;;16.16;96.76;100370.00;5031392;28;20032;-88
2023/09/28 10:13:57;;;;;;;22.02;5.00;;;;;;;16.11;96.60;100360.94;5031565;28;20037;-88
2023/09/28 10:16:24;;;;;;;27.08;5.03;;;;;;;16.00;97.71;100359.22;5045546;28;20032;-87
2023/09/28 10:18:51;;;;;;;22.83;4.07;;;;;;;16.02;97.48;100354.69;5033185;28;20557;-87
2023/09/28 10:21:17;;;;;;;24.95;5.60;;;;;;;16.03;95.25;100362.38;5050734;28;20056;-89
2023/09/28 10:23:42;;;;;;;30.92;6.18;;;;;;;16.07;93.46;100357.78;5051257;28;20427;-88
2023/09/28 10:26:18;;;;;;;21.23;5.15;;;;;;;16.31;93.67;100361.91;5051591;28;20438;-86
2023/09/28 10:29:17;;;;;;;23.15;5.03;;;;;;;16.37;94.64;100369.22;5051310;28;20025;-86
2023/09/28 10:31:43;;;;;;;21.42;4.18;;;;;;;16.42;92.81;100374.88;5010332;28;20044;-86
2023/09/28 10:34:15;;;;;;;23.92;4.50;;;;;;;16.59;92.22;100382.09;5051385;28;20375;-87
2023/09/28 10:36:41;;;;;;;20.08;4.50;;;;;;;16.66;92.77;100377.22;5049368;28;20025;-87
2023/09/28 10:39:14;;;;;;;24.23;4.85;;;;;;;16.56;91.08;100371.13;5051269;28;20507;-87
2023/09/28 10:41:52;;;;;;;18.90;4.07;;;;;;;16.51;89.95;100375.88;5051007;28;20021;-87
2023/09/28 10:44:20;;;;;;;24.70;4.53;;;;;;;16.51;90.54;100368.91;5051408;28;20029;-87
2023/09/28 10:46:47;;;;;;;22.55;5.22;;;;;;;16.62;90.82;100366.19;5050913;28;20108;-87
2023/09/28 10:49:28;;;;;;;29.65;6.78;;;;;;;16.76;90.85;100348.59;5051149;28;20057;-87
2023/09/28 10:51:56;;;;;;;33.58;6.35;;;;;;;16.96;91.53;100350.34;5050440;28;20036;-87
2023/09/28 10:54:24;;;;;;;27.92;5.63;;;;;;;16.67;91.28;100345.78;5050531;28;20462;-87
2023/09/28 10:56:50;;;;;;;21.15;4.93;;;;;;;16.62;90.51;100334.94;5050869;28;20025;-87
2023/09/28 10:59:18;;;;;;;30.00;5.55;;;;;;;16.98;90.52;100335.41;5051054;28;20029;-87
2023/09/28 11:01:48;;;;;;;24.55;6.30;;;;;;;17.23;87.06;100331.47;5051058;28;20052;-87
2023/09/28 11:04:15;;;;;;;26.42;5.18;;;;;;;17.26;86.68;100338.22;5050698;28;20099;-87
2023/09/28 11:06:42;;;;;;;23.90;4.32;;;;;;;17.21;87.07;100333.38;5050022;28;20479;-88
2023/09/28 11:09:11;;;;;;;26.52;5.05;;;;;;;17.24;86.28;100338.38;5052062;28;20036;-87